Toledo, Spain

2:26 PM CET en Febrero 20, 2017 (GMT +0100)
Lugar Urbanizacion la Pozuela | | Change Station

Alt 2050 ft 39.83 °N, 4.03 °W | Updated 5 minutes ago

Despejado
Despejado
75.4 ° F
Sensación térmica 78 ° F
N
6.2
Viento Variable Viento desde NO
Gusts 18.0 mph

Hoy
Alta -- | Baja -- ° F
--% Posibilidad de precipitaciones
Ayer
Alta -- | Baja -- ° F
Precip. -- pul
Presión 30.27 pul
Visibilidad -9999.0 Millas
Nubes
Índice de calor 78 ° F
Punto de rocío 49 ° F
Humedad 39%
Precipitaciones 0.00 pul
Espesor de la nieve No disponible.
8:02 AM 6:58 PM
Creciente menguante, 34% visible
METAR LEGT 201300Z 08005KT CAVOK 13/03 Q1025
Presión 30.27 pul
Visibilidad -9999.0 Millas
Nubes
Índice de calor 78 ° F
Punto de rocío 49 ° F
Humedad 39%
Precipitaciones 0.00 pul
Espesor de la nieve No disponible.
8:02 AM 6:58 PM
Creciente menguante, 34% visible
METAR LEGT 201300Z 08005KT CAVOK 13/03 Q1025

Get Your Daily Forecast Email!

Thanks for signing up!

Be on the lookout for a verification email in your inbox.

You'll start receiving the daily forecast at 8 AM.

×

10-Day Weather Forecast

×

Almanac

Astronomía

Feb. 20, 2017 Salida Puesta
Hora real
Crepúsculo civil
Crepúsculo náutico
Crepúsculo astronómico
Luna
Horas de luz
Horas de luz
Tomorrow will be .
, % of the Moon is Illuminated

Extremos de hoy

Máximos del país Bajas del país

Community

WunderPhotos

Upload Photos

1,962,540 ¡fotos cargadas!

WunderBlog® & News

Nearby

Calidad del aire

  Calidad del aire Índice AQ Contaminante
Not available.

Grosos de nieve

Estación Profundido Altura

Actividad de terremotos

Ciudad Distance Mag. Tiempo y dato
Magnitud mínima muestra es 2,5.

Temperaturas de aguas costeras

Lugar Temperatura

Stations

Estaciones meteorológicas cercanas

Ubicación de la estación Temp. Vientos helados Punto de rocío Humedad Viento Precip. Alt Actualizado Tipo